Time;durP1;ratioP1;P1;durP2;ratioP2;P2;SDS_P1;SDS_P2;PMS_P1;PMS_P2;Temp;Humidity;BMP_temperature;BMP_pressure;BME280_temperature;BME280_humidity;BME280_pressure;Samples;Min_cycle;Max_cycle;Signal;HPM_P1;HPM_P2
2023/09/18 00:01:55;;;;;;;13.45;10.82;;;18.70;99.90;;;;;;10238184;29;20469;-76
2023/09/18 00:07:36;;;;;;;11.05;9.25;;;18.70;48.20;;;;;;10226407;29;20251;-79
2023/09/18 00:13:02;;;;;;;11.80;10.20;;;18.70;1.00;;;;;;10226877;29;20196;-78
2023/09/18 00:18:24;;;;;;;12.43;10.27;;;18.60;1.00;;;;;;10238135;29;20195;-79
2023/09/18 00:23:46;;;;;;;12.02;9.43;;;18.60;99.90;;;;;;10237857;29;20204;-78
2023/09/18 00:29:07;;;;;;;13.98;10.10;;;;;;;;;;10237634;29;20230;-78
2023/09/18 00:34:31;;;;;;;11.77;9.63;;;18.50;97.10;;;;;;10236630;29;20254;-78
2023/09/18 00:39:53;;;;;;;11.07;9.32;;;18.40;99.90;;;;;;10237888;29;20499;-79
2023/09/18 00:45:14;;;;;;;13.48;9.77;;;18.40;99.90;;;;;;10234435;29;20251;-78
2023/09/18 00:50:38;;;;;;;11.32;8.43;;;18.40;99.90;;;;;;10235674;29;20203;-78
2023/09/18 00:56:00;;;;;;;11.98;9.15;;;18.30;41.90;;;;;;10235189;29;20206;-77
2023/09/18 01:01:24;;;;;;;14.65;10.07;;;;;;;;;;10235062;29;20287;-78
2023/09/18 01:06:47;;;;;;;12.55;10.13;;;18.30;1.00;;;;;;10220836;29;20243;-77
2023/09/18 01:12:21;;;;;;;12.52;9.50;;;18.20;99.90;;;;;;10234505;29;20541;-78
2023/09/18 01:17:44;;;;;;;13.52;9.25;;;18.20;25.10;;;;;;10234864;29;20251;-78
2023/09/18 01:23:05;;;;;;;13.52;11.30;;;18.10;72.10;;;;;;10232200;29;20206;-76
2023/09/18 01:28:26;;;;;;;11.52;9.13;;;18.20;99.90;;;;;;10194682;29;20288;-77
2023/09/18 01:33:49;;;;;;;13.20;9.48;;;18.10;1.00;;;;;;10207252;29;20485;-77
2023/09/18 01:39:11;;;;;;;11.45;8.80;;;18.10;7.10;;;;;;10234173;29;20191;-79
2023/09/18 01:44:33;;;;;;;13.40;8.82;;;18.10;1.00;;;;;;10232966;29;20516;-79
2023/09/18 01:49:55;;;;;;;10.60;8.75;;;18.10;1.00;;;;;;10235169;29;20195;-78
2023/09/18 01:55:16;;;;;;;9.57;8.57;;;18.10;1.00;;;;;;10234129;29;20508;-77
2023/09/18 02:00:37;;;;;;;8.88;7.75;;;18.00;1.00;;;;;;10234728;29;20196;-77
2023/09/18 02:05:59;;;;;;;9.10;7.55;;;18.10;99.90;;;;;;10233485;29;20240;-77
2023/09/18 02:11:20;;;;;;;9.95;8.55;;;18.00;99.90;;;;;;10234402;29;20205;-76
2023/09/18 02:16:43;;;;;;;12.15;7.88;;;18.00;99.90;;;;;;10245943;29;20489;-77
2023/09/18 02:22:05;;;;;;;8.75;7.45;;;18.00;1.00;;;;;;10234298;29;20382;-78
2023/09/18 02:27:27;;;;;;;10.02;8.45;;;17.90;99.90;;;;;;10232420;29;20247;-77
2023/09/18 02:32:49;;;;;;;9.13;7.95;;;17.90;1.00;;;;;;10233485;29;20192;-78
2023/09/18 02:38:10;;;;;;;9.25;8.20;;;17.80;1.00;;;;;;10194684;29;20304;-77
2023/09/18 02:43:32;;;;;;;8.40;7.47;;;17.80;99.90;;;;;;10186950;29;20215;-77
2023/09/18 02:48:53;;;;;;;12.15;7.93;;;17.80;1.00;;;;;;10235062;29;20254;-79
2023/09/18 02:54:15;;;;;;;10.23;8.60;;;17.80;99.90;;;;;;10227676;29;20282;-79
2023/09/18 02:59:37;;;;;;;10.25;8.15;;;17.70;71.20;;;;;;10217656;29;20199;-79
2023/09/18 03:04:58;;;;;;;9.10;7.28;;;17.70;1.00;;;;;;10237018;29;20557;-78
2023/09/18 03:10:20;;;;;;;8.70;7.75;;;17.70;1.00;;;;;;10225463;29;20235;-78
2023/09/18 03:15:46;;;;;;;10.30;9.23;;;17.70;1.00;;;;;;10239455;29;20210;-77
2023/09/18 03:21:07;;;;;;;13.02;8.23;;;17.60;1.00;;;;;;10238605;29;20196;-78
2023/09/18 03:26:28;;;;;;;11.55;7.28;;;17.60;99.90;;;;;;10238926;29;20239;-78
2023/09/18 03:31:50;;;;;;;10.23;8.43;;;17.60;94.50;;;;;;10238360;29;20201;-78
2023/09/18 03:37:14;;;;;;;8.75;7.40;;;17.60;99.90;;;;;;10238962;29;20223;-78
2023/09/18 03:42:36;;;;;;;10.55;7.57;;;17.60;1.00;;;;;;10237904;29;20212;-78
2023/09/18 03:47:57;;;;;;;9.60;7.72;;;17.50;1.00;;;;;;10211877;29;20223;-78
2023/09/18 03:53:21;;;;;;;8.50;7.43;;;17.50;1.00;;;;;;10237237;29;20231;-80
2023/09/18 03:58:46;;;;;;;10.20;8.52;;;17.40;99.90;;;;;;10237952;29;20238;-78
2023/09/18 04:04:08;;;;;;;11.18;8.80;;;17.40;1.00;;;;;;10236503;29;20304;-78
2023/09/18 04:09:30;;;;;;;12.48;10.05;;;17.30;1.00;;;;;;10239282;29;20534;-79
2023/09/18 04:14:51;;;;;;;10.55;8.63;;;17.40;1.00;;;;;;10235033;29;20199;-78
2023/09/18 04:20:13;;;;;;;11.13;8.10;;;17.30;1.00;;;;;;10237010;29;20200;-79
2023/09/18 04:25:34;;;;;;;10.90;9.57;;;17.30;1.00;;;;;;10236181;29;20238;-78
2023/09/18 04:30:56;;;;;;;15.65;12.35;;;17.30;99.90;;;;;;10236761;29;20203;-79
2023/09/18 04:36:19;;;;;;;10.75;9.23;;;17.30;99.90;;;;;;10196097;29;20226;-78
2023/09/18 04:41:41;;;;;;;12.55;10.10;;;17.30;99.90;;;;;;10199787;29;20208;-77
2023/09/18 04:47:03;;;;;;;12.20;10.20;;;17.30;99.90;;;;;;10199115;29;20235;-77
2023/09/18 04:52:25;;;;;;;13.73;9.15;;;17.30;1.00;;;;;;10212289;29;20505;-77
2023/09/18 04:57:47;;;;;;;15.73;9.55;;;17.20;66.20;;;;;;10237671;29;20234;-77
2023/09/18 05:03:10;;;;;;;12.95;9.27;;;17.20;99.90;;;;;;10234335;29;20211;-77
2023/09/18 05:08:32;;;;;;;12.40;9.55;;;17.20;1.00;;;;;;10232268;29;20326;-76
2023/09/18 05:13:53;;;;;;;10.25;8.40;;;17.20;1.00;;;;;;10233605;29;20200;-79
2023/09/18 05:19:15;;;;;;;10.15;8.13;;;17.30;99.90;;;;;;10220032;29;20561;-78
2023/09/18 05:24:40;;;;;;;12.18;9.25;;;17.40;38.10;;;;;;10194893;29;20196;-78
2023/09/18 05:30:02;;;;;;;12.48;9.15;;;17.40;1.00;;;;;;10220081;29;20508;-79
2023/09/18 05:35:23;;;;;;;11.05;9.23;;;17.50;1.00;;;;;;10234446;29;20421;-79
2023/09/18 05:40:45;;;;;;;12.30;9.93;;;17.60;1.00;;;;;;10234492;29;20208;-78
2023/09/18 05:46:07;;;;;;;9.93;8.07;;;17.70;1.00;;;;;;10234879;29;20295;-79
2023/09/18 05:51:29;;;;;;;11.52;8.77;;;17.70;1.00;;;;;;10232588;29;20256;-79
2023/09/18 05:56:51;;;;;;;12.63;9.88;;;17.80;99.50;;;;;;10233261;29;20274;-77
2023/09/18 06:02:12;;;;;;;12.90;10.32;;;17.90;1.00;;;;;;10233190;29;20233;-80
2023/09/18 06:07:35;;;;;;;10.68;9.57;;;18.00;49.50;;;;;;10233446;29;20294;-78
2023/09/18 06:12:58;;;;;;;10.48;9.30;;;18.10;1.00;;;;;;10255142;29;20203;-78
2023/09/18 06:18:20;;;;;;;10.25;8.38;;;18.20;26.70;;;;;;10273025;29;20199;-79
2023/09/18 06:23:42;;;;;;;8.63;7.72;;;18.30;99.90;;;;;;10238706;29;20283;-79
2023/09/18 06:29:04;;;;;;;12.13;9.75;;;18.50;99.90;;;;;;10234640;29;20589;-77
2023/09/18 06:34:26;;;;;;;10.18;8.32;;;18.70;1.00;;;;;;10233128;29;20514;-77
2023/09/18 06:39:47;;;;;;;10.23;9.13;;;18.80;1.00;;;;;;10239692;29;20201;-77
2023/09/18 06:45:09;;;;;;;11.93;8.25;;;19.00;53.80;;;;;;10207200;29;20195;-77
2023/09/18 06:50:30;;;;;;;17.67;9.85;;;19.80;99.90;;;;;;10240332;29;20204;-77
2023/09/18 06:55:52;;;;;;;9.10;7.05;;;21.00;1.00;;;;;;10240798;29;20203;-78
2023/09/18 07:01:15;;;;;;;8.23;6.47;;;22.60;1.00;;;;;;10238912;29;20207;-78
2023/09/18 07:06:37;;;;;;;8.85;6.28;;;;;;;;;;10239253;29;20469;-77
2023/09/18 07:11:59;;;;;;;7.45;6.20;;;25.30;1.00;;;;;;10235788;29;20494;-80
2023/09/18 07:17:20;;;;;;;7.65;6.70;;;26.10;92.20;;;;;;10239040;29;20432;-79
2023/09/18 07:22:46;;;;;;;11.15;8.43;;;;;;;;;;10238712;29;20204;-79
2023/09/18 07:28:08;;;;;;;9.93;6.07;;;27.10;1.00;;;;;;10238253;29;20220;-83
2023/09/18 07:33:30;;;;;;;8.43;7.25;;;27.70;1.00;;;;;;10230436;28;20474;-80
2023/09/18 07:38:51;;;;;;;8.93;6.20;;;27.70;1.00;;;;;;10232792;29;20283;-84
2023/09/18 07:44:19;;;;;;;6.80;5.18;;;27.80;1.00;;;;;;10233733;29;20204;-78
2023/09/18 07:49:41;;;;;;;8.60;5.65;;;27.80;1.00;;;;;;10225606;29;20227;-79
2023/09/18 07:55:03;;;;;;;7.90;5.75;;;28.00;1.00;;;;;;10233595;29;20200;-77
2023/09/18 08:00:26;;;;;;;7.57;5.93;;;;;;;;;;10246807;29;20218;-83
2023/09/18 08:05:52;;;;;;;6.15;5.38;;;29.00;99.90;;;;;;10233364;29;20247;-78
2023/09/18 08:11:13;;;;;;;6.07;5.25;;;28.90;99.90;;;;;;10250094;29;20284;-79
2023/09/18 08:16:35;;;;;;;6.03;5.10;;;28.70;99.90;;;;;;10232828;29;20274;-79
2023/09/18 08:21:57;;;;;;;8.63;5.40;;;28.90;99.90;;;;;;10231011;29;20227;-78
2023/09/18 08:27:19;;;;;;;7.50;5.15;;;28.90;99.90;;;;;;10233124;29;20224;-79
2023/09/18 08:32:42;;;;;;;8.10;4.68;;;29.00;99.90;;;;;;10270539;28;20218;-80
2023/09/18 08:38:04;;;;;;;10.82;5.85;;;29.60;99.90;;;;;;10244271;29;20200;-80
2023/09/18 08:43:26;;;;;;;6.15;4.90;;;30.00;1.00;;;;;;10236419;29;20249;-82
2023/09/18 08:48:49;;;;;;;6.22;4.72;;;;;;;;;;10198884;29;20267;-82
2023/09/18 08:54:11;;;;;;;7.22;4.90;;;30.40;99.90;;;;;;10261503;29;20415;-82
2023/09/18 08:59:33;;;;;;;6.93;5.32;;;30.70;99.90;;;;;;10239908;28;20207;-81
2023/09/18 09:04:54;;;;;;;7.43;4.93;;;30.50;99.90;;;;;;10230431;29;20242;-82
2023/09/18 09:10:17;;;;;;;5.95;4.15;;;30.40;99.90;;;;;;10256408;29;20560;-87
2023/09/18 09:15:46;;;;;;;11.52;4.57;;;31.00;99.90;;;;;;10230759;29;20212;-82
2023/09/18 09:21:08;;;;;;;4.82;4.40;;;31.90;99.90;;;;;;10259412;29;20278;-81
2023/09/18 09:26:29;;;;;;;7.82;4.78;;;31.30;1.00;;;;;;10239605;29;20258;-83
2023/09/18 09:31:51;;;;;;;5.85;4.35;;;31.60;1.00;;;;;;10233632;29;20239;-83
2023/09/18 09:37:13;;;;;;;6.13;4.68;;;31.30;1.00;;;;;;10229297;29;20215;-80
2023/09/18 09:42:40;;;;;;;8.98;6.32;;;31.70;1.00;;;;;;10244498;28;20211;-81
2023/09/18 09:59:37;;;;;;;5.32;4.45;;;31.80;99.90;;;;;;10635770;27;20269;-82
2023/09/18 10:04:58;;;;;;;6.40;4.05;;;32.20;99.90;;;;;;10606302;28;20364;-85
2023/09/18 10:10:20;;;;;;;6.55;4.07;;;32.60;99.90;;;;;;10634763;27;20208;-86
2023/09/18 10:15:43;;;;;;;5.18;3.83;;;33.40;99.90;;;;;;10591721;27;20228;-81
2023/09/18 10:21:38;;;;;;;3.67;3.38;;;33.00;99.90;;;;;;10581917;28;20312;-79
2023/09/18 10:27:04;;;;;;;3.65;3.00;;;33.40;99.90;;;;;;10646304;27;20208;-80
2023/09/18 10:32:28;;;;;;;3.67;3.25;;;33.50;99.90;;;;;;10590439;27;20197;-84
2023/09/18 10:37:53;;;;;;;4.40;3.67;;;33.40;99.90;;;;;;10615680;28;20263;-78
2023/09/18 10:43:17;;;;;;;3.28;2.97;;;33.60;99.90;;;;;;10553764;28;20202;-79
2023/09/18 10:48:46;;;;;;;6.13;3.65;;;33.30;99.90;;;;;;10488709;28;20261;-81
2023/09/18 10:54:14;;;;;;;3.97;2.90;;;33.00;99.90;;;;;;10490255;28;20263;-79
2023/09/18 11:04:56;;;;;;;7.53;3.72;;;33.40;99.90;;;;;;10519465;28;20199;-83
2023/09/18 11:10:27;;;;;;;5.28;3.45;;;33.70;99.90;;;;;;10467290;28;20218;-82
2023/09/18 11:15:50;;;;;;;4.35;3.25;;;34.00;99.90;;;;;;10464586;28;20239;-79
2023/09/18 11:21:15;;;;;;;4.93;3.22;;;34.40;99.90;;;;;;10440100;28;20208;-78
2023/09/18 11:26:41;;;;;;;6.75;3.50;;;33.80;99.90;;;;;;10489335;28;20281;-80
2023/09/18 11:32:04;;;;;;;3.55;3.20;;;33.50;99.90;;;;;;10479583;28;20192;-83
2023/09/18 11:37:26;;;;;;;4.07;3.50;;;33.20;99.90;;;;;;10494327;28;20243;-85
2023/09/18 11:43:16;;;;;;;7.72;5.20;;;33.00;99.90;;;;;;10477630;28;20510;-83
2023/09/18 11:48:41;;;;;;;5.38;3.45;;;32.80;99.90;;;;;;10478612;28;20274;-88
2023/09/18 11:54:05;;;;;;;3.63;3.10;;;33.20;99.90;;;;;;10451495;28;20249;-82
2023/09/18 11:59:42;;;;;;;5.60;3.33;;;33.40;99.90;;;;;;10479606;28;20348;-82
2023/09/18 12:05:11;;;;;;;5.85;3.80;;;33.10;99.90;;;;;;10474724;28;20196;-88
2023/09/18 12:10:34;;;;;;;16.27;3.72;;;33.40;99.90;;;;;;10507227;28;20203;-83
2023/09/18 12:16:06;;;;;;;5.13;3.97;;;33.20;99.90;;;;;;10491043;28;20227;-87
2023/09/18 12:21:29;;;;;;;3.60;3.30;;;32.40;99.90;;;;;;10456173;28;20200;-89
2023/09/18 12:26:52;;;;;;;5.43;3.28;;;33.00;99.90;;;;;;10486298;28;20203;-82
2023/09/18 12:32:14;;;;;;;3.60;3.08;;;33.20;99.90;;;;;;10471138;28;20204;-86
2023/09/18 12:37:40;;;;;;;8.05;4.03;;;33.70;99.90;;;;;;10472266;28;20591;-88
2023/09/18 12:43:03;;;;;;;8.13;4.13;;;33.70;99.90;;;;;;10476296;28;20219;-77
2023/09/18 12:48:26;;;;;;;3.85;3.42;;;33.60;99.90;;;;;;10456592;28;20532;-78
2023/09/18 12:53:47;;;;;;;5.88;3.83;;;32.70;99.90;;;;;;10470110;28;20508;-80
2023/09/18 12:59:09;;;;;;;4.55;3.67;;;32.30;99.90;;;;;;10471738;28;20750;-80
2023/09/18 13:04:37;;;;;;;4.65;4.00;;;31.40;99.90;;;;;;10471721;28;20249;-79
2023/09/18 13:10:10;;;;;;;5.82;3.60;;;31.90;99.90;;;;;;10437704;28;20220;-83
2023/09/18 13:15:32;;;;;;;5.28;4.60;;;32.10;99.90;;;;;;10462273;28;20298;-84
2023/09/18 13:20:54;;;;;;;14.30;5.70;;;31.20;99.90;;;;;;10431017;28;20246;-78
2023/09/18 13:26:16;;;;;;;4.18;3.78;;;30.50;99.90;;;;;;10456571;28;20191;-80
2023/09/18 13:31:37;;;;;;;10.80;5.13;;;30.20;99.90;;;;;;10462211;28;20302;-85
2023/09/18 13:37:00;;;;;;;7.13;4.43;;;30.10;99.90;;;;;;10472780;28;20274;-83
2023/09/18 13:42:22;;;;;;;12.05;8.02;;;30.00;99.90;;;;;;10452305;28;20482;-86
2023/09/18 13:47:43;;;;;;;10.05;5.07;;;30.00;99.90;;;;;;10492955;28;20226;-89
2023/09/18 13:53:06;;;;;;;5.65;5.10;;;29.90;99.90;;;;;;10473794;28;20215;-84
2023/09/18 13:58:27;;;;;;;10.95;5.57;;;29.80;99.90;;;;;;10428169;28;20452;-84
2023/09/18 14:03:50;;;;;;;6.97;5.32;;;29.40;99.90;;;;;;10498533;28;20196;-79
2023/09/18 14:09:11;;;;;;;6.70;5.40;;;29.20;99.90;;;;;;10472219;28;20410;-88
2023/09/18 14:14:34;;;;;;;8.43;5.25;;;28.70;1.00;;;;;;10444838;28;20215;-78
2023/09/18 14:19:56;;;;;;;9.95;4.93;;;28.20;99.90;;;;;;10430808;28;20232;-81
2023/09/18 14:25:20;;;;;;;6.90;5.20;;;28.20;99.90;;;;;;10452337;28;20282;-84
2023/09/18 14:30:41;;;;;;;11.00;6.07;;;27.90;99.90;;;;;;10471644;28;21252;-84
2023/09/18 14:36:04;;;;;;;7.47;4.97;;;27.60;99.90;;;;;;10469404;28;20350;-83
2023/09/18 14:41:26;;;;;;;7.13;5.53;;;27.50;1.00;;;;;;10483093;28;20226;-83
2023/09/18 14:46:50;;;;;;;6.93;6.22;;;;;;;;;;10452950;28;20409;-88
2023/09/18 14:52:12;;;;;;;11.32;7.05;;;26.80;1.00;;;;;;10429341;28;20188;-80
2023/09/18 14:57:33;;;;;;;9.82;5.55;;;27.20;1.00;;;;;;10481431;28;20246;-81
2023/09/18 15:02:56;;;;;;;11.25;9.07;;;;;;;;;;10511211;28;20218;-87
2023/09/18 15:08:19;;;;;;;9.50;6.78;;;;;;;;;;10503581;28;20207;-84
2023/09/18 15:13:46;;;;;;;8.27;7.25;;;27.00;99.90;;;;;;10501538;28;20532;-81
2023/09/18 15:19:10;;;;;;;9.70;6.80;;;27.00;99.90;;;;;;10498817;28;20269;-82
2023/09/18 15:24:32;;;;;;;10.07;7.30;;;26.90;99.90;;;;;;10480990;28;20265;-83
2023/09/18 15:29:54;;;;;;;11.27;7.53;;;;;;;;;;10518783;28;20199;-82
2023/09/18 15:35:23;;;;;;;8.43;7.63;;;26.60;99.90;;;;;;10489322;28;20218;-82
2023/09/18 15:40:45;;;;;;;17.67;8.80;;;26.70;1.00;;;;;;10488121;28;20372;-83
2023/09/18 15:46:07;;;;;;;8.73;7.82;;;;;;;;;;10523385;28;20237;-82
2023/09/18 15:51:29;;;;;;;6.97;6.38;;;;;;;;;;10507118;28;20270;-82
2023/09/18 15:56:51;;;;;;;8.05;6.13;;;;;;;;;;10522712;28;20437;-83
2023/09/18 16:02:14;;;;;;;6.15;5.55;;;;;;;;;;10508233;28;20249;-82
2023/09/18 16:07:39;;;;;;;7.32;6.03;;;26.00;99.90;;;;;;10478805;28;20214;-83
2023/09/18 16:13:02;;;;;;;6.85;5.90;;;26.00;99.90;;;;;;10480969;28;20211;-82
2023/09/18 16:18:24;;;;;;;6.55;5.45;;;25.70;99.90;;;;;;10481254;28;20223;-83
2023/09/18 16:23:45;;;;;;;7.45;5.55;;;25.70;99.90;;;;;;10520443;28;20207;-82
2023/09/18 16:29:07;;;;;;;5.70;5.20;;;25.60;99.90;;;;;;10504182;28;20435;-80
2023/09/18 16:34:28;;;;;;;9.13;5.40;;;25.50;99.90;;;;;;10497626;28;20223;-83
2023/09/18 16:39:50;;;;;;;9.35;6.80;;;25.30;99.90;;;;;;10468214;28;20233;-83
2023/09/18 16:45:12;;;;;;;8.95;6.63;;;25.10;99.90;;;;;;10479875;28;20192;-81
2023/09/18 16:50:33;;;;;;;12.57;7.95;;;25.00;99.90;;;;;;10464609;28;20377;-81
2023/09/18 16:55:55;;;;;;;18.90;11.27;;;24.80;99.90;;;;;;10478693;28;20289;-81
2023/09/18 17:01:17;;;;;;;29.63;15.30;;;;;;;;;;10478287;28;20191;-80
2023/09/18 17:06:38;;;;;;;24.10;14.13;;;20.90;99.90;;;;;;10504747;28;20191;-80
2023/09/18 17:12:00;;;;;;;16.27;10.27;;;24.60;99.90;;;;;;10482994;28;20389;-82
2023/09/18 17:17:22;;;;;;;12.73;8.13;;;;;;;;;;10491706;28;20418;-80
2023/09/18 17:22:44;;;;;;;9.60;7.68;;;;;;;;;;10480571;28;20203;-79
2023/09/18 17:28:06;;;;;;;8.10;7.15;;;24.30;99.90;;;;;;10467253;28;20198;-79
2023/09/18 17:33:27;;;;;;;10.27;8.18;;;24.00;1.00;;;;;;10514241;28;20199;-77
2023/09/18 17:38:49;;;;;;;19.52;12.00;;;23.70;99.90;;;;;;10490314;28;20238;-77
2023/09/18 17:44:11;;;;;;;57.15;26.77;;;;;;;;;;10477556;28;20188;-77
2023/09/18 17:49:34;;;;;;;33.60;19.15;;;23.60;99.90;;;;;;10464097;28;20210;-77
2023/09/18 17:54:57;;;;;;;22.77;14.85;;;23.60;99.90;;;;;;10462076;28;20223;-76
2023/09/18 18:00:19;;;;;;;22.52;13.60;;;23.50;99.90;;;;;;10476909;28;20239;-76
2023/09/18 18:05:43;;;;;;;30.30;17.30;;;23.50;1.00;;;;;;10470173;28;20270;-76
2023/09/18 18:11:05;;;;;;;35.67;20.67;;;;;;;;;;10500615;28;20194;-76
2023/09/18 18:16:27;;;;;;;32.53;19.80;;;23.10;99.90;;;;;;10500238;28;20318;-82
2023/09/18 18:21:49;;;;;;;22.50;15.25;;;23.20;1.00;;;;;;10504658;28;20203;-76
2023/09/18 18:27:11;;;;;;;25.48;13.90;;;22.90;99.90;;;;;;10495008;28;20224;-79
2023/09/18 18:32:33;;;;;;;15.77;10.65;;;22.90;99.90;;;;;;10484664;28;20278;-81
2023/09/18 18:37:54;;;;;;;15.82;9.95;;;22.90;99.90;;;;;;10482795;28;20249;-79
2023/09/18 18:43:17;;;;;;;17.15;9.35;;;22.90;99.90;;;;;;10480112;28;20532;-82
2023/09/18 18:48:39;;;;;;;12.45;9.23;;;22.80;99.90;;;;;;10486329;28;20195;-77
2023/09/18 18:54:03;;;;;;;14.43;9.75;;;22.80;99.90;;;;;;10483335;28;20211;-83
2023/09/18 18:59:25;;;;;;;12.82;9.15;;;22.60;99.90;;;;;;10441874;28;20307;-77
2023/09/18 19:04:47;;;;;;;13.15;8.43;;;;;;;;;;10454918;28;20204;-77
2023/09/18 19:10:09;;;;;;;11.73;8.05;;;22.40;1.00;;;;;;10441460;28;20192;-76
2023/09/18 19:15:31;;;;;;;16.42;10.45;;;22.50;99.90;;;;;;10480451;28;20287;-82
2023/09/18 19:20:54;;;;;;;14.27;10.40;;;22.40;99.90;;;;;;10441973;28;20252;-83
2023/09/18 19:26:18;;;;;;;11.95;9.35;;;22.00;99.90;;;;;;10441772;28;20188;-83
2023/09/18 19:31:40;;;;;;;10.73;9.20;;;22.30;99.90;;;;;;10445229;28;20217;-82
2023/09/18 19:37:02;;;;;;;11.13;9.20;;;22.20;99.90;;;;;;10479016;28;20542;-82
2023/09/18 19:42:28;;;;;;;12.10;9.07;;;22.30;1.00;;;;;;10497555;28;20514;-84
2023/09/18 19:47:50;;;;;;;10.90;8.65;;;22.30;1.00;;;;;;10482204;28;20195;-83
2023/09/18 19:53:12;;;;;;;10.48;8.60;;;;;;;;;;10466106;28;20199;-83
2023/09/18 19:58:33;;;;;;;12.40;9.27;;;;;;;;;;10514688;28;20231;-83
2023/09/18 20:03:55;;;;;;;11.15;9.10;;;22.20;1.00;;;;;;10507874;28;20187;-82
2023/09/18 20:09:17;;;;;;;12.95;8.80;;;22.10;1.00;;;;;;10482164;28;20208;-79
2023/09/18 20:14:41;;;;;;;14.18;10.68;;;21.90;99.90;;;;;;10480250;28;20500;-83
2023/09/18 20:20:06;;;;;;;13.30;10.43;;;21.90;99.90;;;;;;10476521;28;20411;-78
2023/09/18 20:25:27;;;;;;;10.93;9.38;;;21.80;99.90;;;;;;10480019;28;20219;-79
2023/09/18 20:30:52;;;;;;;12.52;9.57;;;21.80;1.00;;;;;;10506694;28;20238;-79
2023/09/18 20:36:14;;;;;;;12.65;9.80;;;21.90;1.00;;;;;;10498384;28;20207;-78
2023/09/18 20:41:35;;;;;;;13.07;10.18;;;21.90;1.00;;;;;;10488863;28;20270;-78
2023/09/18 20:46:57;;;;;;;13.30;9.98;;;22.00;99.90;;;;;;10503071;28;20214;-82
2023/09/18 20:52:19;;;;;;;13.13;10.65;;;21.90;62.60;;;;;;10479727;28;20200;-82
2023/09/18 20:57:41;;;;;;;12.45;10.32;;;22.00;14.60;;;;;;10479173;28;20239;-80
2023/09/18 21:03:04;;;;;;;11.20;10.10;;;21.90;1.00;;;;;;10464747;28;20236;-80
2023/09/18 21:08:26;;;;;;;11.70;10.30;;;21.90;1.00;;;;;;10495535;28;20520;-83
2023/09/18 21:13:48;;;;;;;12.60;11.23;;;21.80;1.00;;;;;;10474181;28;20186;-83
2023/09/18 21:19:10;;;;;;;14.48;11.13;;;21.80;1.00;;;;;;10492145;28;20231;-79
2023/09/18 21:24:31;;;;;;;12.90;11.52;;;21.90;1.00;;;;;;10478799;28;20241;-80
2023/09/18 21:29:53;;;;;;;14.27;12.48;;;21.80;1.00;;;;;;10499208;28;20485;-83
2023/09/18 21:35:14;;;;;;;13.60;11.40;;;21.90;1.00;;;;;;10496517;28;20449;-79
2023/09/18 21:40:36;;;;;;;14.50;11.70;;;21.90;1.00;;;;;;10478048;28;20219;-83
2023/09/18 21:45:57;;;;;;;13.82;12.32;;;21.90;1.00;;;;;;10477628;28;20533;-82
2023/09/18 21:51:19;;;;;;;13.10;11.70;;;21.90;1.00;;;;;;10463392;28;20219;-83
2023/09/18 21:56:40;;;;;;;16.48;12.27;;;21.90;11.20;;;;;;10477629;28;20552;-82
2023/09/18 22:02:03;;;;;;;14.50;12.55;;;21.90;26.60;;;;;;10459763;28;20199;-82
2023/09/18 22:07:25;;;;;;;20.30;13.05;;;21.90;37.30;;;;;;10496541;28;20211;-82
2023/09/18 22:12:46;;;;;;;16.58;12.10;;;22.00;49.70;;;;;;10489983;28;20265;-83
2023/09/18 22:18:08;;;;;;;13.30;11.90;;;22.00;57.00;;;;;;10517053;28;20223;-83
2023/09/18 22:23:31;;;;;;;13.93;12.43;;;22.00;84.20;;;;;;10513246;28;20252;-83
2023/09/18 22:28:53;;;;;;;21.88;13.25;;;22.00;99.90;;;;;;10518362;28;20558;-82
2023/09/18 22:34:14;;;;;;;14.77;13.23;;;22.00;99.90;;;;;;10513316;28;20201;-80
2023/09/18 22:39:58;;;;;;;14.07;12.57;;;22.00;99.90;;;;;;10489799;28;20299;-80
2023/09/18 22:45:57;;;;;;;19.15;12.98;;;22.00;99.90;;;;;;10461693;28;20215;-78
2023/09/18 22:51:56;;;;;;;18.05;13.10;;;22.00;99.90;;;;;;10476553;28;20278;-79
2023/09/18 22:57:19;;;;;;;14.73;13.13;;;22.00;99.90;;;;;;10444479;28;20240;-79
2023/09/18 23:02:42;;;;;;;14.00;12.60;;;21.90;99.90;;;;;;10476649;28;20223;-83
2023/09/18 23:08:08;;;;;;;17.48;13.20;;;22.00;99.90;;;;;;10483783;28;20203;-83
2023/09/18 23:13:32;;;;;;;16.88;13.45;;;21.90;99.90;;;;;;10490737;28;20183;-84
2023/09/18 23:18:53;;;;;;;15.95;13.27;;;21.90;99.90;;;;;;10506143;28;20242;-83
2023/09/18 23:24:15;;;;;;;15.20;13.02;;;21.90;99.90;;;;;;10483145;28;20192;-83
2023/09/18 23:29:37;;;;;;;14.90;13.35;;;21.90;99.90;;;;;;10484472;28;20252;-82
2023/09/18 23:35:00;;;;;;;13.45;12.15;;;21.90;99.90;;;;;;10509102;28;20204;-79
2023/09/18 23:40:22;;;;;;;16.05;13.70;;;21.90;1.00;;;;;;10482439;28;20230;-78
2023/09/18 23:45:43;;;;;;;15.82;14.15;;;21.80;1.00;;;;;;10482242;28;20218;-78
2023/09/18 23:51:08;;;;;;;17.00;14.27;;;21.70;1.00;;;;;;10464775;28;20458;-82
2023/09/18 23:56:31;;;;;;;15.32;13.82;;;21.60;62.80;;;;;;10466823;28;20231;-84
